createdAt,value
2023-02-18T00:00:24.298Z,5.78
2023-02-18T00:03:22.113Z,6.28
2023-02-18T00:06:19.974Z,6.63
2023-02-18T00:09:28.637Z,7.78
2023-02-18T00:12:26.343Z,7.35
2023-02-18T00:15:20.598Z,6.25
2023-02-18T00:18:08.381Z,6.75
2023-02-18T00:20:58.873Z,7.50
2023-02-18T00:23:54.104Z,8.32
2023-02-18T00:26:43.039Z,8.63
2023-02-18T00:29:34.722Z,7.05
2023-02-18T00:32:22.584Z,6.90
2023-02-18T00:35:15.992Z,7.97
2023-02-18T00:38:03.784Z,6.10
2023-02-18T00:40:53.839Z,5.57
2023-02-18T00:43:48.264Z,5.00
2023-02-18T00:46:42.624Z,3.53
2023-02-18T00:49:35.666Z,3.47
2023-02-18T00:55:36.199Z,2.15
2023-02-18T00:58:36.778Z,2.22
2023-02-18T01:01:34.202Z,2.28
2023-02-18T01:04:32.114Z,2.78
2023-02-18T01:07:29.614Z,4.20
2023-02-18T01:10:22.462Z,3.70
2023-02-18T01:13:23.535Z,4.18
2023-02-18T01:16:53.184Z,3.60
2023-02-18T01:19:53.171Z,3.72
2023-02-18T01:22:43.736Z,3.40
2023-02-18T01:25:47.451Z,2.97
2023-02-18T01:35:41.073Z,4.18
2023-02-18T01:38:50.409Z,4.22
2023-02-18T01:42:31.370Z,3.95
2023-02-18T01:46:14.500Z,2.67
2023-02-18T01:51:37.314Z,2.13
2023-02-18T01:53:51.158Z,1.67
2023-02-18T01:56:53.259Z,2.42
2023-02-18T02:00:37.908Z,2.28
2023-02-18T02:07:06.679Z,2.05
2023-02-18T02:10:19.105Z,2.10
2023-02-18T02:14:08.810Z,2.30
2023-02-18T02:22:27.208Z,1.90
2023-02-18T02:25:56.759Z,1.42
2023-02-18T02:41:49.461Z,1.10
2023-02-18T02:53:00.809Z,1.13
2023-02-18T03:04:48.914Z,1.35
2023-02-18T03:14:27.758Z,1.35
2023-02-18T03:17:21.223Z,1.20
2023-02-18T03:20:16.233Z,1.30
2023-02-18T03:23:08.224Z,1.30
2023-02-18T03:25:58.594Z,1.40
2023-02-18T03:28:49.094Z,1.50
2023-02-18T03:31:40.578Z,2.33
2023-02-18T03:34:35.782Z,1.60
2023-02-18T03:37:24.460Z,1.60
2023-02-18T03:40:13.091Z,1.58
2023-02-18T03:43:03.784Z,1.50
2023-02-18T03:45:54.818Z,1.40
2023-02-18T03:48:42.929Z,1.20
2023-02-18T03:51:31.191Z,1.08
2023-02-18T03:54:19.094Z,1.10
2023-02-18T03:57:09.248Z,1.23
2023-02-18T03:59:56.985Z,1.33
2023-02-18T04:02:45.214Z,1.52
2023-02-18T04:05:36.649Z,1.50
2023-02-18T04:08:24.903Z,1.40
2023-02-18T04:11:13.038Z,1.00
2023-02-18T04:14:00.649Z,1.50
2023-02-18T04:16:48.870Z,1.23
2023-02-18T04:19:37.308Z,1.40
2023-02-18T04:22:28.151Z,1.70
2023-02-18T04:25:16.323Z,1.58
2023-02-18T04:28:04.970Z,1.60
2023-02-18T04:30:53.410Z,1.80
2023-02-18T04:33:41.546Z,1.67
2023-02-18T04:36:29.605Z,1.70
2023-02-18T04:39:20.720Z,1.38
2023-02-18T04:42:11.272Z,1.23
2023-02-18T04:44:59.279Z,1.52
2023-02-18T04:47:47.220Z,1.63
2023-02-18T04:50:35.165Z,1.60
2023-02-18T04:53:23.433Z,1.90
2023-02-18T04:56:11.762Z,1.60
2023-02-18T04:58:59.731Z,1.83
2023-02-18T05:01:47.862Z,1.80
2023-02-18T05:04:36.112Z,1.63
2023-02-18T05:07:24.150Z,1.85
2023-02-18T05:10:18.843Z,1.63
2023-02-18T05:13:07.104Z,2.10
2023-02-18T05:15:54.903Z,2.17
2023-02-18T05:18:42.788Z,2.20
2023-02-18T05:21:30.706Z,2.28
2023-02-18T05:24:18.590Z,3.15
2023-02-18T05:27:06.513Z,3.03
2023-02-18T05:29:54.307Z,3.15
2023-02-18T05:32:42.007Z,3.33
2023-02-18T05:35:29.772Z,3.03
2023-02-18T05:38:17.707Z,3.80
2023-02-18T05:41:05.957Z,3.88
2023-02-18T05:44:12.600Z,5.00
2023-02-18T05:47:07.414Z,3.63
2023-02-18T05:49:56.233Z,3.47
2023-02-18T05:52:44.164Z,2.50
2023-02-18T05:55:32.090Z,2.17
2023-02-18T05:58:32.353Z,1.77
2023-02-18T06:01:38.775Z,1.50
2023-02-18T06:04:27.199Z,1.80
2023-02-18T06:07:15.068Z,1.85
2023-02-18T06:10:03.638Z,1.77
2023-02-18T06:12:51.521Z,1.65
2023-02-18T06:15:40.353Z,1.38
2023-02-18T06:18:27.977Z,1.60
2023-02-18T06:21:15.648Z,1.58
2023-02-18T06:24:03.464Z,1.70
2023-02-18T06:26:51.261Z,1.17
2023-02-18T06:29:38.940Z,1.88
2023-02-18T06:32:26.736Z,1.40
2023-02-18T06:35:14.285Z,1.90
2023-02-18T06:38:01.936Z,1.50
2023-02-18T06:40:49.767Z,1.85
2023-02-18T06:43:37.725Z,2.10
2023-02-18T06:46:25.418Z,2.58
2023-02-18T06:49:13.587Z,2.20
2023-02-18T06:52:04.664Z,1.90
2023-02-18T06:54:52.578Z,2.00
2023-02-18T06:57:44.574Z,2.35
2023-02-18T07:00:35.854Z,2.45
2023-02-18T07:03:23.680Z,2.28
2023-02-18T07:06:24.886Z,2.22
2023-02-18T07:09:22.096Z,2.38
2023-02-18T07:12:12.276Z,2.65
2023-02-18T07:15:28.249Z,2.88
2023-02-18T07:18:42.879Z,2.85
2023-02-18T07:24:21.476Z,3.13
2023-02-18T07:27:15.348Z,3.30
2023-02-18T07:32:15.756Z,3.47
2023-02-18T07:33:51.028Z,3.50
2023-02-18T07:36:42.558Z,3.70
2023-02-18T07:39:30.723Z,3.85
2023-02-18T07:42:18.839Z,3.75
2023-02-18T07:45:07.262Z,3.47
2023-02-18T07:47:55.078Z,3.67
2023-02-18T07:50:45.370Z,3.33
2023-02-18T07:53:33.140Z,3.10
2023-02-18T07:56:21.041Z,3.17
2023-02-18T07:59:09.212Z,2.78
2023-02-18T08:01:57.160Z,2.58
2023-02-18T08:04:45.206Z,2.15
2023-02-18T08:07:41.208Z,2.10
2023-02-18T08:10:34.626Z,2.15
2023-02-18T08:13:31.227Z,2.33
2023-02-18T08:16:20.926Z,2.38
2023-02-18T08:19:09.047Z,2.58
2023-02-18T08:21:57.008Z,3.20
2023-02-18T08:24:44.865Z,3.42
2023-02-18T08:27:32.741Z,2.85
2023-02-18T08:30:21.137Z,2.90
2023-02-18T08:33:08.677Z,3.00
2023-02-18T08:35:57.780Z,3.25
2023-02-18T08:38:45.756Z,3.97
2023-02-18T08:41:33.543Z,3.35
2023-02-18T08:44:21.406Z,2.95
2023-02-18T08:48:16.946Z,2.85
2023-02-18T08:50:17.052Z,2.92
2023-02-18T08:53:05.753Z,2.55
2023-02-18T08:55:53.666Z,2.90
2023-02-18T08:58:41.917Z,2.88
2023-02-18T09:01:29.533Z,2.88
2023-02-18T09:04:17.836Z,2.80
2023-02-18T09:07:06.000Z,2.80
2023-02-18T09:09:53.854Z,2.72
2023-02-18T09:12:41.608Z,3.28
2023-02-18T09:15:32.747Z,2.70
2023-02-18T09:18:20.567Z,2.95
2023-02-18T09:21:13.271Z,2.80
2023-02-18T09:24:05.342Z,2.85
2023-02-18T09:26:55.529Z,2.50
2023-02-18T09:29:43.616Z,2.55
2023-02-18T09:32:38.828Z,2.47
2023-02-18T09:35:30.419Z,2.00
2023-02-18T09:38:19.085Z,2.55
2023-02-18T09:41:14.311Z,2.67
2023-02-18T09:44:34.400Z,1.92
2023-02-18T09:47:40.979Z,2.15
2023-02-18T09:50:34.623Z,2.22
2023-02-18T09:53:24.237Z,2.00
2023-02-18T09:56:40.696Z,2.13
2023-02-18T09:59:30.928Z,1.95
2023-02-18T10:02:20.629Z,1.70
2023-02-18T10:05:15.169Z,2.10
2023-02-18T10:08:17.735Z,1.95
2023-02-18T10:11:17.357Z,2.20
2023-02-18T10:14:14.626Z,1.92
2023-02-18T10:17:07.530Z,1.95
2023-02-18T10:19:57.165Z,1.60
2023-02-18T10:22:45.127Z,1.85
2023-02-18T10:25:37.135Z,1.50
2023-02-18T10:28:26.715Z,1.25
2023-02-18T10:31:37.231Z,1.45
2023-02-18T10:34:41.823Z,1.23
2023-02-18T10:37:36.620Z,0.98
2023-02-18T10:40:36.022Z,1.17
2023-02-18T10:43:49.260Z,0.85
2023-02-18T10:46:42.963Z,0.70
2023-02-18T10:49:55.531Z,0.90
2023-02-18T10:52:46.175Z,0.80
2023-02-18T10:55:43.078Z,0.90
2023-02-18T10:58:35.378Z,0.70
2023-02-18T11:01:24.253Z,0.75
2023-02-18T11:04:21.349Z,0.88
2023-02-18T11:07:20.021Z,0.63
2023-02-18T11:10:31.147Z,0.95
2023-02-18T11:13:32.290Z,1.15
2023-02-18T11:16:27.941Z,0.60
2023-02-18T11:19:44.002Z,0.98
2023-02-18T11:22:35.405Z,1.00
2023-02-18T11:25:33.851Z,0.95
2023-02-18T11:28:24.125Z,0.95
2023-02-18T11:31:26.943Z,0.80
2023-02-18T11:34:24.718Z,1.00
2023-02-18T11:37:21.092Z,1.05
2023-02-18T11:40:28.576Z,1.40
2023-02-18T11:43:20.733Z,1.20
2023-02-18T11:46:12.234Z,1.25
2023-02-18T11:49:25.145Z,1.00
2023-02-18T11:52:26.468Z,1.33
2023-02-18T11:55:27.793Z,1.65
2023-02-18T11:58:18.953Z,1.50
2023-02-18T12:01:14.925Z,1.35
2023-02-18T12:04:14.817Z,1.30
2023-02-18T12:07:06.051Z,1.33
2023-02-18T12:09:58.726Z,1.60
2023-02-18T12:12:53.925Z,1.63
2023-02-18T12:15:54.161Z,1.70
2023-02-18T12:19:00.091Z,1.25
2023-02-18T12:21:56.815Z,1.30
2023-02-18T12:24:59.707Z,1.33
2023-02-18T12:28:09.948Z,1.60
2023-02-18T12:31:21.929Z,1.90
2023-02-18T12:34:25.392Z,1.52
2023-02-18T12:37:34.941Z,2.10
2023-02-18T12:40:55.581Z,1.50
2023-02-18T12:44:14.068Z,1.60
2023-02-18T12:47:39.583Z,1.95
2023-02-18T12:50:33.668Z,1.98
2023-02-18T12:53:50.382Z,1.60
2023-02-18T12:56:53.145Z,2.05
2023-02-18T13:00:12.135Z,2.13
2023-02-18T13:03:31.818Z,2.60
2023-02-18T13:07:07.430Z,2.78
2023-02-18T13:09:55.467Z,2.80
2023-02-18T13:13:11.671Z,2.33
2023-02-18T13:16:10.890Z,2.45
2023-02-18T13:19:01.984Z,2.53
2023-02-18T13:21:52.815Z,2.33
2023-02-18T13:24:48.197Z,2.35
2023-02-18T13:28:02.274Z,1.95
2023-02-18T13:31:16.843Z,2.00
2023-02-18T13:34:20.856Z,2.00
2023-02-18T13:37:18.640Z,2.25
2023-02-18T13:40:25.584Z,1.80
2023-02-18T13:43:29.139Z,2.08
2023-02-18T13:46:20.274Z,2.10
2023-02-18T13:49:13.712Z,2.00
2023-02-18T13:52:03.617Z,2.47
2023-02-18T13:54:56.308Z,2.38
2023-02-18T13:57:49.090Z,2.78
2023-02-18T14:00:49.228Z,2.38
2023-02-18T14:03:42.967Z,2.65
2023-02-18T14:06:39.840Z,2.90
2023-02-18T14:09:45.175Z,2.03
2023-02-18T14:12:47.031Z,2.35
2023-02-18T14:15:34.755Z,2.65
2023-02-18T14:18:35.366Z,2.10
2023-02-18T14:21:43.538Z,2.40
2023-02-18T14:24:56.860Z,3.28
2023-02-18T14:27:45.345Z,2.60
2023-02-18T14:30:40.119Z,2.20
2023-02-18T14:33:32.703Z,2.47
2023-02-18T14:36:35.408Z,2.28
2023-02-18T14:39:43.614Z,2.10
2023-02-18T14:42:52.860Z,2.30
2023-02-18T14:46:19.245Z,2.03
2023-02-18T14:49:38.180Z,2.00
2023-02-18T14:52:49.844Z,2.25
2023-02-18T14:55:45.349Z,2.58
2023-02-18T14:58:38.096Z,2.40
2023-02-18T15:01:30.212Z,2.22
2023-02-18T15:04:18.861Z,2.47
2023-02-18T15:07:12.459Z,1.90
2023-02-18T15:10:02.651Z,1.90
2023-02-18T15:12:51.155Z,2.15
2023-02-18T15:15:39.025Z,2.05
2023-02-18T15:18:40.624Z,2.00
2023-02-18T15:21:31.805Z,2.03
2023-02-18T15:24:44.209Z,1.88
2023-02-18T15:27:35.464Z,2.15
2023-02-18T15:30:31.461Z,1.58
2023-02-18T15:33:21.669Z,1.73
2023-02-18T15:36:14.473Z,1.50
2023-02-18T15:39:04.093Z,1.65
2023-02-18T15:42:08.236Z,1.65
2023-02-18T15:45:02.354Z,1.45
2023-02-18T15:50:51.282Z,1.35
2023-02-18T15:53:41.893Z,1.67
2023-02-18T15:56:37.100Z,1.65
2023-02-18T15:59:32.689Z,1.67
2023-02-18T16:02:25.243Z,1.27
2023-02-18T16:05:14.604Z,1.23
2023-02-18T16:08:07.320Z,1.20
2023-02-18T16:11:10.336Z,1.27
2023-02-18T16:13:58.497Z,1.20
2023-02-18T16:17:15.617Z,1.25
2023-02-18T16:20:38.722Z,1.20
2023-02-18T16:23:31.462Z,1.15
2023-02-18T16:26:44.674Z,1.10
2023-02-18T16:29:43.239Z,1.55
2023-02-18T16:32:31.792Z,1.45
2023-02-18T16:35:20.385Z,1.13
2023-02-18T16:38:11.339Z,1.35
2023-02-18T16:40:59.355Z,1.48
2023-02-18T16:43:47.352Z,1.08
2023-02-18T16:46:35.538Z,1.30
2023-02-18T16:49:23.507Z,1.20
2023-02-18T16:52:15.479Z,1.30
2023-02-18T16:55:15.781Z,1.50
2023-02-18T16:58:03.858Z,1.77
2023-02-18T17:00:53.349Z,1.27
2023-02-18T17:03:41.461Z,1.40
2023-02-18T17:06:29.887Z,1.27
2023-02-18T17:09:39.307Z,1.48
2023-02-18T17:12:46.546Z,1.70
2023-02-18T17:16:20.814Z,1.52
2023-02-18T17:25:46.742Z,1.60
2023-02-18T17:28:51.756Z,1.63
2023-02-18T17:31:54.905Z,1.50
2023-02-18T17:34:49.962Z,1.88
2023-02-18T17:41:26.232Z,1.77
2023-02-18T17:44:24.925Z,1.65
2023-02-18T17:50:39.327Z,1.80
2023-02-18T17:53:31.462Z,1.52
2023-02-18T17:56:23.152Z,1.83
2023-02-18T17:59:24.269Z,1.70
2023-02-18T18:02:34.333Z,1.63
2023-02-18T18:05:24.686Z,1.83
2023-02-18T18:08:40.473Z,1.50
2023-02-18T18:14:47.515Z,1.83
2023-02-18T18:17:38.733Z,2.10
2023-02-18T18:23:42.737Z,2.25
2023-02-18T18:26:39.372Z,2.25
2023-02-18T18:29:27.129Z,1.80
2023-02-18T18:32:14.794Z,2.20
2023-02-18T18:35:13.463Z,2.20
2023-02-18T18:38:02.068Z,2.28
2023-02-18T18:40:50.154Z,2.15
2023-02-18T18:43:40.040Z,2.60
2023-02-18T18:46:35.432Z,3.10
2023-02-18T18:49:23.683Z,2.33
2023-02-18T18:52:17.118Z,2.45
2023-02-18T18:55:17.069Z,2.67
2023-02-18T18:58:13.501Z,2.42
2023-02-18T19:01:03.873Z,2.55
2023-02-18T19:03:51.702Z,2.90
2023-02-18T19:06:42.561Z,3.03
2023-02-18T19:09:35.092Z,3.08
2023-02-18T19:12:24.248Z,2.42
2023-02-18T19:15:33.114Z,3.15
2023-02-18T19:18:33.991Z,2.83
2023-02-18T19:21:22.969Z,2.63
2023-02-18T19:24:24.327Z,3.20
2023-02-18T19:27:16.173Z,2.83
2023-02-18T19:30:05.180Z,2.60
2023-02-18T19:32:57.009Z,3.30
2023-02-18T19:35:45.215Z,3.17
2023-02-18T19:38:38.365Z,2.63
2023-02-18T19:41:26.307Z,3.20
2023-02-18T19:44:13.983Z,3.50
2023-02-18T19:47:01.979Z,3.00
2023-02-18T19:49:53.465Z,3.72
2023-02-18T19:52:41.299Z,3.47
2023-02-18T19:55:32.104Z,3.53
2023-02-18T19:58:24.893Z,3.40
2023-02-18T20:01:17.476Z,3.55
2023-02-18T20:04:05.664Z,3.78
2023-02-18T20:06:53.812Z,3.72
2023-02-18T20:09:44.212Z,4.15
2023-02-18T20:12:35.268Z,3.30
2023-02-18T20:15:23.532Z,3.35
2023-02-18T20:18:17.898Z,3.70
2023-02-18T20:21:07.637Z,3.85
2023-02-18T20:24:03.996Z,3.47
2023-02-18T20:26:59.082Z,3.92
2023-02-18T20:29:48.228Z,3.72
2023-02-18T20:32:42.426Z,4.00
2023-02-18T20:38:25.129Z,4.07
2023-02-18T20:41:16.767Z,4.25
2023-02-18T20:44:07.396Z,4.90
2023-02-18T20:46:55.467Z,5.30
2023-02-18T20:49:43.763Z,4.57
2023-02-18T20:52:34.856Z,4.75
2023-02-18T20:55:26.662Z,5.65
2023-02-18T20:58:18.629Z,4.43
2023-02-18T21:01:12.562Z,4.85
2023-02-18T21:04:01.276Z,5.00
2023-02-18T21:06:51.894Z,5.00
2023-02-18T21:09:39.879Z,4.55
2023-02-18T21:12:40.207Z,5.13
2023-02-18T21:15:37.470Z,5.05
2023-02-18T21:18:32.811Z,5.70
2023-02-18T21:21:26.005Z,5.53
2023-02-18T21:24:14.671Z,5.40
2023-02-18T21:27:02.400Z,5.75
2023-02-18T21:29:52.875Z,5.60
2023-02-18T21:32:41.107Z,5.97
2023-02-18T21:35:29.250Z,6.00
2023-02-18T21:38:19.496Z,5.45
2023-02-18T21:41:11.673Z,6.55
2023-02-18T21:44:14.457Z,6.72
2023-02-18T21:47:03.043Z,6.45
2023-02-18T21:49:50.704Z,6.57
2023-02-18T21:52:39.552Z,6.28
2023-02-18T21:55:27.155Z,6.72
2023-02-18T21:58:15.080Z,7.07
2023-02-18T22:01:08.649Z,6.60
2023-02-18T22:03:56.526Z,6.85
2023-02-18T22:06:44.529Z,7.03
2023-02-18T22:09:36.225Z,7.43
2023-02-18T22:12:27.504Z,7.20
2023-02-18T22:15:15.419Z,7.70
2023-02-18T22:18:06.024Z,8.55
2023-02-18T22:20:53.560Z,8.85
2023-02-18T22:23:41.153Z,7.95
2023-02-18T22:26:28.698Z,8.35
2023-02-18T22:29:20.207Z,7.78
2023-02-18T22:32:08.014Z,8.15
2023-02-18T22:34:58.824Z,7.90
2023-02-18T22:37:49.889Z,8.00
2023-02-18T22:40:37.472Z,8.57
2023-02-18T22:43:25.331Z,7.55
2023-02-18T22:46:16.407Z,7.95
2023-02-18T22:49:09.538Z,8.52
2023-02-18T22:51:57.193Z,7.75
2023-02-18T22:54:44.933Z,8.00
2023-02-18T22:57:32.696Z,7.90
2023-02-18T23:00:25.110Z,7.75
2023-02-18T23:03:12.886Z,8.32
2023-02-18T23:06:05.567Z,8.20
2023-02-18T23:08:55.059Z,8.20
2023-02-18T23:11:43.084Z,8.43
2023-02-18T23:14:33.509Z,7.85
2023-02-18T23:17:21.145Z,8.82
2023-02-18T23:20:10.787Z,7.88
2023-02-18T23:22:59.504Z,7.90
2023-02-18T23:25:50.058Z,7.82
2023-02-18T23:28:49.541Z,7.90
2023-02-18T23:31:42.266Z,8.15
2023-02-18T23:34:35.186Z,8.93
2023-02-18T23:37:44.221Z,7.95
2023-02-18T23:40:32.960Z,8.00
2023-02-18T23:43:23.692Z,7.95
2023-02-18T23:46:12.128Z,8.50
2023-02-18T23:49:06.392Z,8.43
2023-02-18T23:52:01.635Z,7.93
2023-02-18T23:54:52.432Z,7.72
2023-02-18T23:57:40.078Z,7.28
